createdAt,value
2018-05-17T00:00:38.607Z,7.27
2018-05-17T00:03:06.222Z,6.63
2018-05-17T00:05:33.749Z,6.67
2018-05-17T00:08:01.252Z,6.07
2018-05-17T00:10:29.762Z,7.07
2018-05-17T00:12:57.623Z,7.23
2018-05-17T00:15:25.169Z,6.70
2018-05-17T00:17:52.776Z,7.43
2018-05-17T00:20:20.478Z,7.53
2018-05-17T00:22:50.175Z,5.83
2018-05-17T00:25:17.805Z,6.17
2018-05-17T00:27:45.455Z,6.87
2018-05-17T00:30:12.988Z,8.13
2018-05-17T00:32:40.574Z,6.37
2018-05-17T00:35:08.082Z,5.83
2018-05-17T00:37:36.429Z,5.67
2018-05-17T00:40:03.988Z,5.37
2018-05-17T00:42:32.524Z,5.63
2018-05-17T00:45:00.133Z,4.93
2018-05-17T00:47:28.624Z,5.37
2018-05-17T00:49:56.126Z,4.87
2018-05-17T00:52:23.661Z,4.87
2018-05-17T00:54:51.150Z,5.43
2018-05-17T00:57:19.100Z,4.97
2018-05-17T00:59:46.865Z,4.60
2018-05-17T01:02:14.418Z,6.20
2018-05-17T01:04:42.056Z,5.07
2018-05-17T01:07:10.297Z,5.23
2018-05-17T01:09:37.793Z,4.73
2018-05-17T01:12:20.922Z,4.37
2018-05-17T01:14:48.685Z,4.90
2018-05-17T01:17:16.202Z,4.80
2018-05-17T01:19:43.867Z,5.67
2018-05-17T01:22:11.369Z,5.03
2018-05-17T01:24:38.980Z,6.97
2018-05-17T01:27:06.509Z,5.23
2018-05-17T01:29:34.194Z,6.33
2018-05-17T01:32:02.593Z,5.67
2018-05-17T01:34:30.877Z,5.53
2018-05-17T01:37:11.049Z,5.33
2018-05-17T01:39:38.574Z,5.43
2018-05-17T01:42:06.971Z,5.60
2018-05-17T01:44:34.705Z,5.63
2018-05-17T01:47:03.742Z,7.13
2018-05-17T01:49:31.349Z,6.33
2018-05-17T01:51:58.855Z,7.00
2018-05-17T01:54:26.357Z,5.33
2018-05-17T01:56:53.926Z,5.20
2018-05-17T01:59:21.742Z,5.73
2018-05-17T02:01:51.063Z,6.00
2018-05-17T02:04:18.998Z,5.37
2018-05-17T02:06:47.275Z,5.77
2018-05-17T02:09:14.951Z,5.30
2018-05-17T02:11:42.442Z,6.77
2018-05-17T02:14:10.007Z,6.10
2018-05-17T02:16:37.473Z,6.83
2018-05-17T02:19:05.846Z,6.37
2018-05-17T02:21:33.473Z,7.10
2018-05-17T02:24:00.941Z,6.87
2018-05-17T02:26:28.548Z,6.70
2018-05-17T02:28:56.025Z,7.50
2018-05-17T02:31:23.718Z,6.17
2018-05-17T02:33:51.231Z,6.37
2018-05-17T02:36:18.966Z,7.27
2018-05-17T02:38:47.208Z,7.43
2018-05-17T02:41:14.672Z,6.50
2018-05-17T02:43:43.687Z,7.13
2018-05-17T02:46:12.098Z,7.13
2018-05-17T02:48:39.801Z,6.63
2018-05-17T02:51:07.390Z,6.47
2018-05-17T02:53:36.431Z,7.13
2018-05-17T02:56:04.044Z,7.43
2018-05-17T02:58:32.304Z,6.97
2018-05-17T03:00:59.798Z,5.93
2018-05-17T03:03:27.370Z,6.97
2018-05-17T03:05:55.222Z,6.40
2018-05-17T03:08:22.746Z,6.97
2018-05-17T03:10:51.156Z,6.97
2018-05-17T03:13:19.229Z,7.07
2018-05-17T03:15:46.712Z,6.67
2018-05-17T03:18:14.262Z,6.37
2018-05-17T03:20:41.885Z,6.13
2018-05-17T03:23:09.472Z,7.33
2018-05-17T03:25:36.965Z,6.80
2018-05-17T03:28:04.523Z,6.37
2018-05-17T03:30:32.091Z,7.00
2018-05-17T03:33:00.391Z,7.03
2018-05-17T03:35:27.911Z,6.63
2018-05-17T03:37:55.383Z,7.40
2018-05-17T03:40:23.638Z,7.80
2018-05-17T03:42:51.135Z,7.47
2018-05-17T03:45:18.632Z,6.17
2018-05-17T03:47:46.153Z,6.70
2018-05-17T03:50:13.678Z,6.97
2018-05-17T03:52:41.970Z,7.30
2018-05-17T03:55:10.228Z,6.67
2018-05-17T03:57:38.556Z,5.87
2018-05-17T04:00:06.045Z,6.77
2018-05-17T04:02:45.513Z,6.97
2018-05-17T04:05:26.000Z,7.43
2018-05-17T04:07:53.528Z,7.33
2018-05-17T04:10:21.941Z,5.50
2018-05-17T04:12:49.962Z,6.83
2018-05-17T04:15:17.540Z,6.40
2018-05-17T04:17:45.832Z,6.00
2018-05-17T04:20:13.301Z,5.90
2018-05-17T04:22:40.981Z,5.60
2018-05-17T04:25:08.473Z,6.13
2018-05-17T04:27:36.144Z,6.37
2018-05-17T04:30:04.451Z,6.73
2018-05-17T04:32:32.190Z,6.07
2018-05-17T04:35:00.688Z,5.63
2018-05-17T04:37:28.210Z,6.93
2018-05-17T04:39:56.042Z,7.13
2018-05-17T04:42:23.621Z,6.53
2018-05-17T04:44:51.529Z,6.60
2018-05-17T04:47:19.154Z,6.47
2018-05-17T04:49:46.707Z,6.20
2018-05-17T04:52:14.293Z,6.97
2018-05-17T04:54:42.733Z,5.40
2018-05-17T04:57:10.571Z,5.80
2018-05-17T04:59:38.424Z,5.80
2018-05-17T05:02:05.979Z,7.33
2018-05-17T05:04:34.356Z,6.20
2018-05-17T05:07:02.053Z,7.27
2018-05-17T05:09:30.363Z,6.77
2018-05-17T05:11:57.952Z,7.27
2018-05-17T05:14:25.726Z,6.10
2018-05-17T05:16:53.306Z,6.23
2018-05-17T05:19:21.872Z,5.97
2018-05-17T05:21:50.025Z,6.43
2018-05-17T05:24:17.827Z,6.63
2018-05-17T05:26:45.528Z,6.73
2018-05-17T05:29:14.135Z,5.90
2018-05-17T05:31:42.134Z,5.90
2018-05-17T05:34:09.760Z,6.40
2018-05-17T05:36:37.394Z,6.10
2018-05-17T05:39:06.611Z,7.17
2018-05-17T05:41:34.214Z,6.20
2018-05-17T05:44:01.741Z,6.13
2018-05-17T05:46:29.292Z,8.10
2018-05-17T05:48:56.800Z,7.17
2018-05-17T05:51:24.442Z,7.13
2018-05-17T05:53:51.987Z,7.57
2018-05-17T05:56:19.702Z,7.63
2018-05-17T05:58:47.974Z,9.57
2018-05-17T06:01:16.270Z,9.70
2018-05-17T06:03:43.788Z,9.73
2018-05-17T06:06:12.080Z,9.03
2018-05-17T06:08:40.366Z,11.53
2018-05-17T06:11:08.671Z,14.77
2018-05-17T06:13:36.321Z,14.20
2018-05-17T06:16:03.809Z,12.37
2018-05-17T06:18:31.574Z,8.03
2018-05-17T06:20:59.145Z,8.07
2018-05-17T06:23:26.626Z,10.03
2018-05-17T06:25:54.883Z,12.87
2018-05-17T06:28:23.475Z,17.57
2018-05-17T06:30:51.742Z,20.90
2018-05-17T06:33:20.162Z,21.07
2018-05-17T06:35:47.669Z,19.77
2018-05-17T06:38:15.203Z,14.17
2018-05-17T06:40:42.705Z,19.87
2018-05-17T06:43:11.095Z,21.83
2018-05-17T06:45:38.573Z,20.90
2018-05-17T06:48:06.134Z,22.33
2018-05-17T06:50:33.689Z,21.90
2018-05-17T06:53:01.161Z,22.37
2018-05-17T06:55:28.684Z,20.40
2018-05-17T06:57:56.177Z,24.20
2018-05-17T07:00:23.830Z,23.13
2018-05-17T07:02:51.342Z,25.17
2018-05-17T07:05:19.600Z,20.80
2018-05-17T07:07:47.973Z,22.27
2018-05-17T07:10:15.519Z,20.07
2018-05-17T07:12:43.106Z,21.23
2018-05-17T07:15:11.365Z,18.20
2018-05-17T07:17:38.973Z,19.10
2018-05-17T07:20:06.457Z,17.27
2018-05-17T07:22:33.980Z,17.80
2018-05-17T07:25:01.578Z,18.60
2018-05-17T07:27:29.131Z,19.70
2018-05-17T07:29:56.670Z,18.83
2018-05-17T07:32:24.538Z,14.77
2018-05-17T07:34:52.423Z,15.43
2018-05-17T07:37:20.972Z,16.33
2018-05-17T07:39:48.489Z,18.57
2018-05-17T07:42:16.202Z,18.67
2018-05-17T07:44:43.876Z,22.03
2018-05-17T07:47:12.180Z,22.30
2018-05-17T07:49:40.516Z,22.53
2018-05-17T07:52:08.670Z,18.73
2018-05-17T07:54:37.766Z,21.13
2018-05-17T07:57:05.543Z,19.07
2018-05-17T07:59:33.179Z,19.33
2018-05-17T08:02:00.994Z,17.33
2018-05-17T08:04:28.878Z,18.43
2018-05-17T08:06:56.775Z,13.40
2018-05-17T08:09:24.826Z,14.87
2018-05-17T08:11:52.880Z,14.43
2018-05-17T08:14:20.557Z,14.37
2018-05-17T08:16:49.153Z,14.30
2018-05-17T08:19:17.418Z,14.83
2018-05-17T08:21:45.715Z,14.87
2018-05-17T08:24:13.440Z,14.57
2018-05-17T08:26:42.554Z,14.90
2018-05-17T08:29:10.189Z,16.47
2018-05-17T08:31:38.577Z,15.43
2018-05-17T08:34:06.934Z,14.97
2018-05-17T08:36:34.516Z,15.73
2018-05-17T08:39:02.163Z,15.80
2018-05-17T08:41:29.828Z,15.13
2018-05-17T08:43:57.388Z,14.47
2018-05-17T08:46:25.793Z,13.90
2018-05-17T08:48:53.878Z,13.13
2018-05-17T08:51:21.424Z,12.27
2018-05-17T08:53:49.002Z,11.90
2018-05-17T08:56:16.505Z,12.67
2018-05-17T08:58:44.963Z,11.47
2018-05-17T09:01:12.684Z,11.33
2018-05-17T09:03:40.313Z,10.63
2018-05-17T09:06:09.516Z,11.03
2018-05-17T09:08:37.194Z,10.23
2018-05-17T09:11:04.709Z,9.77
2018-05-17T09:13:32.549Z,10.40
2018-05-17T09:16:00.394Z,11.70
2018-05-17T09:18:28.012Z,10.57
2018-05-17T09:20:56.793Z,11.33
2018-05-17T09:23:26.335Z,10.33
2018-05-17T09:25:53.869Z,12.17
2018-05-17T09:28:22.900Z,12.03
2018-05-17T09:30:50.513Z,12.20
2018-05-17T09:33:18.827Z,12.43
2018-05-17T09:35:47.694Z,12.03
2018-05-17T09:38:15.287Z,13.20
2018-05-17T09:40:42.930Z,13.57
2018-05-17T09:43:10.487Z,14.00
2018-05-17T09:45:38.182Z,13.55
2018-05-17T09:48:05.955Z,11.87
2018-05-17T09:50:33.748Z,12.57
2018-05-17T09:53:02.030Z,11.23
2018-05-17T09:55:29.810Z,11.05
2018-05-17T09:57:57.501Z,9.48
2018-05-17T10:00:25.237Z,8.40
2018-05-17T10:02:53.031Z,7.50
2018-05-17T10:05:20.710Z,8.38
2018-05-17T10:07:48.379Z,7.28
2018-05-17T10:10:16.814Z,8.35
2018-05-17T10:12:44.279Z,8.30
2018-05-17T10:15:12.117Z,8.13
2018-05-17T10:17:39.724Z,7.35
2018-05-17T10:20:08.069Z,8.00
2018-05-17T10:22:35.772Z,7.10
2018-05-17T10:25:03.366Z,7.37
2018-05-17T10:27:35.027Z,8.95
2018-05-17T10:30:02.774Z,7.60
2018-05-17T10:32:30.377Z,7.03
2018-05-17T10:34:58.233Z,8.10
2018-05-17T10:37:25.922Z,7.03
2018-05-17T10:39:54.078Z,6.47
2018-05-17T10:42:22.525Z,7.17
2018-05-17T10:44:50.086Z,7.47
2018-05-17T10:47:17.640Z,6.87
2018-05-17T10:49:45.121Z,7.00
2018-05-17T10:52:12.658Z,6.33
2018-05-17T10:54:40.316Z,7.70
2018-05-17T10:57:07.854Z,6.23
2018-05-17T10:59:36.183Z,6.60
2018-05-17T11:02:05.512Z,6.33
2018-05-17T11:04:33.942Z,8.67
2018-05-17T11:07:01.604Z,7.20
2018-05-17T11:09:29.079Z,7.10
2018-05-17T11:11:56.702Z,7.13
2018-05-17T11:14:24.276Z,7.33
2018-05-17T11:16:51.947Z,6.37
2018-05-17T11:19:19.710Z,6.70
2018-05-17T11:21:47.476Z,6.57
2018-05-17T11:24:15.025Z,8.50
2018-05-17T11:26:43.619Z,6.37
2018-05-17T11:29:11.271Z,7.37
2018-05-17T11:31:38.904Z,7.00
2018-05-17T11:34:06.404Z,6.50
2018-05-17T11:36:34.052Z,7.00
2018-05-17T11:39:01.817Z,7.87
2018-05-17T11:41:29.366Z,6.27
2018-05-17T11:43:57.073Z,7.10
2018-05-17T11:46:25.330Z,7.13
2018-05-17T11:48:53.393Z,6.93
2018-05-17T11:51:21.131Z,7.27
2018-05-17T11:53:48.698Z,6.40
2018-05-17T11:56:16.432Z,6.73
2018-05-17T11:58:43.941Z,6.37
2018-05-17T12:01:11.561Z,6.43
2018-05-17T12:03:39.163Z,6.27
2018-05-17T12:06:06.751Z,6.37
2018-05-17T12:08:35.164Z,6.37
2018-05-17T12:11:02.676Z,7.00
2018-05-17T12:13:30.233Z,6.57
2018-05-17T12:15:58.493Z,6.20
2018-05-17T12:18:27.158Z,5.87
2018-05-17T12:20:54.673Z,5.73
2018-05-17T12:23:25.408Z,6.00
2018-05-17T12:25:53.074Z,6.33
2018-05-17T12:28:20.699Z,5.97
2018-05-17T12:30:48.956Z,7.07
2018-05-17T12:33:16.422Z,7.00
2018-05-17T12:35:44.701Z,7.17
2018-05-17T12:38:13.129Z,6.87
2018-05-17T12:40:40.627Z,6.67
2018-05-17T12:43:08.197Z,6.87
2018-05-17T12:45:36.656Z,6.13
2018-05-17T12:48:04.911Z,6.53
2018-05-17T12:50:33.992Z,6.33
2018-05-17T12:53:01.482Z,6.40
2018-05-17T12:55:29.089Z,6.93
2018-05-17T12:57:57.471Z,6.97
2018-05-17T13:00:24.982Z,7.20
2018-05-17T13:02:53.613Z,7.33
2018-05-17T13:05:23.989Z,6.53
2018-05-17T13:07:51.564Z,5.67
2018-05-17T13:10:19.890Z,5.77
2018-05-17T13:12:48.230Z,10.20
2018-05-17T13:15:16.915Z,7.43
2018-05-17T13:17:44.429Z,7.77
2018-05-17T13:20:11.986Z,8.73
2018-05-17T13:22:39.798Z,7.40
2018-05-17T13:25:07.252Z,6.23
2018-05-17T13:27:34.773Z,8.13
2018-05-17T13:30:05.700Z,6.97
2018-05-17T13:32:33.210Z,6.40
2018-05-17T13:35:00.714Z,6.23
2018-05-17T13:37:29.469Z,5.93
2018-05-17T13:39:57.218Z,6.30
2018-05-17T13:42:25.017Z,11.53
2018-05-17T13:44:53.364Z,6.43
2018-05-17T13:47:21.650Z,6.50
2018-05-17T13:49:49.911Z,6.73
2018-05-17T13:52:20.252Z,5.67
2018-05-17T13:54:48.006Z,7.23
2018-05-17T13:57:16.522Z,4.97
2018-05-17T13:59:44.147Z,5.17
2018-05-17T14:02:11.647Z,8.80
2018-05-17T14:04:40.045Z,6.00
2018-05-17T14:07:08.868Z,5.70
2018-05-17T14:09:36.516Z,9.10
2018-05-17T14:12:04.083Z,10.23
2018-05-17T14:14:31.562Z,5.33
2018-05-17T14:16:59.051Z,15.10
2018-05-17T14:19:27.404Z,7.83
2018-05-17T14:21:55.910Z,4.77
2018-05-17T14:24:25.122Z,5.70
2018-05-17T14:36:43.029Z,5.23
2018-05-17T14:39:11.562Z,5.63
2018-05-17T14:41:39.063Z,5.60
2018-05-17T14:44:07.369Z,4.97
2018-05-17T14:46:35.027Z,5.10
2018-05-17T14:49:02.903Z,5.37
2018-05-17T14:51:30.589Z,5.17
2018-05-17T14:53:58.213Z,5.13
2018-05-17T14:56:26.118Z,5.43
2018-05-17T14:58:54.881Z,5.70
2018-05-17T15:01:22.518Z,5.33
2018-05-17T15:03:50.316Z,5.40
2018-05-17T15:06:18.083Z,4.77
2018-05-17T15:08:47.494Z,4.93
2018-05-17T15:11:15.113Z,4.60
2018-05-17T15:13:42.940Z,5.27
2018-05-17T15:16:10.682Z,4.10
2018-05-17T15:18:39.851Z,4.37
2018-05-17T15:21:07.367Z,5.43
2018-05-17T15:23:35.375Z,4.13
2018-05-17T15:26:02.905Z,4.80
2018-05-17T15:28:31.109Z,5.63
2018-05-17T15:30:58.972Z,4.43
2018-05-17T15:33:26.588Z,4.80
2018-05-17T15:35:55.042Z,5.67
2018-05-17T15:38:24.314Z,5.07
2018-05-17T15:40:52.248Z,5.77
2018-05-17T15:43:19.797Z,5.07
2018-05-17T15:45:48.271Z,6.23
2018-05-17T15:48:15.839Z,5.70
2018-05-17T15:50:44.218Z,5.90
2018-05-17T15:53:11.936Z,5.60
2018-05-17T15:55:40.345Z,4.53
2018-05-17T15:58:07.906Z,6.33
2018-05-17T16:00:35.976Z,5.43
2018-05-17T16:03:03.857Z,5.27
2018-05-17T16:05:32.377Z,6.27
2018-05-17T16:08:00.093Z,5.73
2018-05-17T16:10:27.608Z,5.63
2018-05-17T16:12:55.976Z,5.07
2018-05-17T16:15:24.485Z,5.07
2018-05-17T16:17:51.993Z,4.60
2018-05-17T16:20:20.012Z,5.10
2018-05-17T16:22:48.582Z,4.90
2018-05-17T16:25:17.010Z,5.90
2018-05-17T16:27:44.771Z,4.93
2018-05-17T16:30:12.496Z,5.70
2018-05-17T16:32:42.216Z,5.03
2018-05-17T16:35:10.590Z,5.40
2018-05-17T16:37:39.322Z,5.87
2018-05-17T16:40:07.348Z,5.80
2018-05-17T16:42:35.008Z,5.50
2018-05-17T16:45:04.604Z,6.03
2018-05-17T16:47:32.368Z,7.12
2018-05-17T16:50:00.688Z,5.73
2018-05-17T16:52:28.290Z,5.90
2018-05-17T16:54:57.066Z,4.50
2018-05-17T16:57:25.522Z,6.30
2018-05-17T16:59:55.841Z,5.33
2018-05-17T17:12:08.489Z,5.43
2018-05-17T17:14:36.009Z,5.87
2018-05-17T17:17:03.590Z,5.70
2018-05-17T17:19:32.393Z,5.73
2018-05-17T17:21:59.906Z,6.03
2018-05-17T17:24:28.257Z,5.30
2018-05-17T17:27:00.683Z,5.67
2018-05-17T17:29:28.160Z,5.47
2018-05-17T17:31:55.685Z,5.23
2018-05-17T17:34:23.291Z,5.73
2018-05-17T17:36:50.840Z,5.33
2018-05-17T17:39:18.421Z,4.43
2018-05-17T17:44:17.742Z,5.77
2018-05-17T17:46:46.404Z,4.83
2018-05-17T17:49:13.938Z,6.00
2018-05-17T17:51:41.590Z,5.00
2018-05-17T17:54:09.755Z,6.07
2018-05-17T17:56:37.262Z,6.00
2018-05-17T17:59:04.836Z,5.23
2018-05-17T18:01:33.916Z,6.07
2018-05-17T18:04:01.595Z,5.50
2018-05-17T18:06:29.486Z,6.10
2018-05-17T18:08:57.278Z,6.47
2018-05-17T18:11:24.928Z,5.60
2018-05-17T18:13:52.429Z,5.50
2018-05-17T18:16:21.058Z,6.73
2018-05-17T18:18:50.837Z,5.57
2018-05-17T18:21:19.109Z,6.30
2018-05-17T18:23:47.380Z,7.53
2018-05-17T18:26:15.611Z,7.10
2018-05-17T18:28:44.078Z,5.70
2018-05-17T18:31:11.546Z,5.77
2018-05-17T18:33:39.793Z,5.90
2018-05-17T18:36:07.389Z,7.30
2018-05-17T18:38:34.899Z,6.60
2018-05-17T18:44:40.038Z,5.67
2018-05-17T18:47:08.309Z,6.73
2018-05-17T18:49:36.565Z,5.67
2018-05-17T18:54:32.152Z,5.87
2018-05-17T18:57:00.423Z,5.47
2018-05-17T18:59:28.175Z,5.20
2018-05-17T19:01:55.681Z,5.10
2018-05-17T19:04:24.088Z,5.97
2018-05-17T19:06:52.859Z,5.07
2018-05-17T19:09:22.069Z,5.47
2018-05-17T19:11:49.974Z,5.90
2018-05-17T19:14:17.448Z,5.90
2018-05-17T19:16:45.279Z,5.13
2018-05-17T19:19:12.958Z,5.80
2018-05-17T19:21:40.724Z,6.23
2018-05-17T19:24:08.182Z,5.83
2018-05-17T19:26:36.066Z,6.40
2018-05-17T19:29:03.528Z,6.23
2018-05-17T19:31:31.029Z,6.47
2018-05-17T19:33:58.556Z,8.03
2018-05-17T19:36:26.558Z,5.90
2018-05-17T19:38:54.028Z,5.77
2018-05-17T19:41:21.745Z,7.17
2018-05-17T19:43:50.093Z,7.43
2018-05-17T19:46:17.965Z,5.70
2018-05-17T19:48:45.415Z,6.53
2018-05-17T19:51:13.243Z,6.43
2018-05-17T19:53:41.519Z,6.10
2018-05-17T19:56:09.400Z,6.77
2018-05-17T19:58:36.868Z,6.10
2018-05-17T20:01:04.630Z,5.90
2018-05-17T20:03:32.122Z,5.87
2018-05-17T20:06:00.360Z,6.30
2018-05-17T20:08:27.972Z,6.63
2018-05-17T20:10:56.590Z,5.57
2018-05-17T20:13:24.118Z,6.23
2018-05-17T20:15:52.522Z,5.77
2018-05-17T20:18:20.040Z,6.30
2018-05-17T20:20:48.293Z,6.33
2018-05-17T20:23:15.813Z,5.77
2018-05-17T20:38:43.371Z,6.80
2018-05-17T20:41:11.630Z,6.33
2018-05-17T20:43:43.358Z,6.63
2018-05-17T20:46:10.886Z,7.13
2018-05-17T20:48:39.405Z,7.17
2018-05-17T20:51:06.923Z,6.90
2018-05-17T20:53:36.190Z,6.30
2018-05-17T20:56:03.722Z,7.47
2018-05-17T20:58:31.187Z,7.97
2018-05-17T21:00:58.727Z,6.97
2018-05-17T21:03:26.314Z,7.50
2018-05-17T21:05:53.798Z,6.83
2018-05-17T21:08:21.277Z,6.37
2018-05-17T21:10:48.785Z,6.37
2018-05-17T21:13:16.533Z,7.00
2018-05-17T21:15:44.396Z,7.13
2018-05-17T21:18:12.116Z,6.53
2018-05-17T21:20:40.542Z,6.27
2018-05-17T21:23:08.285Z,5.70
2018-05-17T21:25:36.164Z,6.10
2018-05-17T21:28:03.711Z,6.77
2018-05-17T21:30:31.169Z,6.33
2018-05-17T21:32:58.654Z,6.07
2018-05-17T21:35:26.112Z,5.83
2018-05-17T21:37:53.629Z,6.23
2018-05-17T21:40:21.091Z,6.83
2018-05-17T21:42:48.573Z,6.87
2018-05-17T21:45:16.065Z,5.87
2018-05-17T21:47:44.311Z,7.70
2018-05-17T21:50:12.208Z,6.63
2018-05-17T21:52:40.466Z,6.03
2018-05-17T21:55:07.940Z,6.00
2018-05-17T21:57:37.178Z,6.17
2018-05-17T22:00:04.722Z,6.73
2018-05-17T22:02:32.716Z,7.23
2018-05-17T22:05:00.564Z,7.33
2018-05-17T22:07:28.810Z,6.80
2018-05-17T22:09:57.055Z,7.13
2018-05-17T22:12:24.516Z,5.33
2018-05-17T22:14:52.034Z,7.43
2018-05-17T22:17:20.112Z,7.07
2018-05-17T22:19:47.590Z,6.97
2018-05-17T22:22:15.061Z,7.07
2018-05-17T22:24:43.530Z,6.57
2018-05-17T22:27:10.973Z,6.43
2018-05-17T22:29:38.906Z,7.83
2018-05-17T22:32:06.382Z,6.97
2018-05-17T22:34:33.850Z,7.17
2018-05-17T22:37:01.690Z,6.43
2018-05-17T22:39:29.150Z,6.63
2018-05-17T22:41:57.598Z,6.87
2018-05-17T22:44:25.080Z,7.33
2018-05-17T22:46:52.837Z,7.13
2018-05-17T22:49:20.317Z,6.30
2018-05-17T22:51:47.961Z,7.73
2018-05-17T22:54:15.381Z,6.77
2018-05-17T22:56:55.529Z,6.50
2018-05-17T22:59:23.763Z,7.00
2018-05-17T23:01:51.257Z,7.33
2018-05-17T23:04:19.489Z,7.47
2018-05-17T23:06:48.062Z,8.67
2018-05-17T23:09:15.524Z,7.40
2018-05-17T23:11:43.000Z,6.93
2018-05-17T23:14:10.466Z,8.17
2018-05-17T23:16:38.191Z,8.23
2018-05-17T23:19:06.342Z,6.97
2018-05-17T23:21:34.214Z,8.20
2018-05-17T23:24:01.746Z,8.00
2018-05-17T23:26:29.685Z,7.87
2018-05-17T23:28:57.161Z,7.13
2018-05-17T23:31:25.515Z,7.57
2018-05-17T23:33:53.541Z,8.37
2018-05-17T23:36:21.817Z,8.47
2018-05-17T23:38:49.292Z,9.33
2018-05-17T23:41:28.597Z,7.37
2018-05-17T23:43:56.448Z,8.57
2018-05-17T23:46:24.506Z,7.63
2018-05-17T23:48:52.740Z,7.70
2018-05-17T23:51:20.583Z,7.47
2018-05-17T23:53:48.065Z,8.60
2018-05-17T23:56:15.526Z,7.43
2018-05-17T23:58:43.001Z,8.23
